Time;durP1;ratioP1;P1;durP2;ratioP2;P2;SDS_P1;SDS_P2;PMS_P1;PMS_P2;Temp;Humidity;BMP_temperature;BMP_pressure;BME280_temperature;BME280_humidity;BME280_pressure;Samples;Min_cycle;Max_cycle;Signal;HPM_P1;HPM_P2
2021/09/03 00:00:17;;;;;;;14.60;11.38;;;410.40;2355.20;;;;;;5025913;28;20018;-77
2021/09/03 00:02:46;;;;;;;17.10;11.98;;;410.40;2355.20;;;;;;5035615;28;20044;-76
2021/09/03 00:05:17;;;;;;;14.15;11.20;;;410.30;2355.20;;;;;;5063739;28;20113;-77
2021/09/03 00:07:48;;;;;;;17.83;11.43;;;410.30;2355.20;;;;;;5035704;28;20484;-77
2021/09/03 00:10:17;;;;;;;17.50;12.05;;;410.30;2355.20;;;;;;5035906;28;20034;-77
2021/09/03 00:12:44;;;;;;;18.48;11.18;;;410.30;2355.20;;;;;;5036862;28;20026;-76
2021/09/03 00:15:12;;;;;;;21.73;12.73;;;410.30;2355.20;;;;;;5029237;28;20045;-76
2021/09/03 00:17:39;;;;;;;15.60;11.43;;;410.30;2355.20;;;;;;5023942;28;20025;-77
2021/09/03 00:20:08;;;;;;;16.13;11.50;;;410.30;2355.20;;;;;;5049947;28;20029;-77
2021/09/03 00:22:34;;;;;;;17.67;11.60;;;410.30;2355.20;;;;;;5040771;28;20082;-77
2021/09/03 00:24:59;;;;;;;16.13;11.02;;;410.30;2355.20;;;;;;5038493;28;20025;-77
2021/09/03 00:27:25;;;;;;;15.63;12.10;;;410.30;2355.20;;;;;;5031343;28;20028;-76
2021/09/03 00:29:51;;;;;;;15.15;11.02;;;410.30;2355.20;;;;;;5030390;28;20029;-76
2021/09/03 00:32:16;;;;;;;17.83;11.70;;;410.30;2355.20;;;;;;5031677;28;20037;-75
2021/09/03 00:34:42;;;;;;;19.40;11.60;;;410.20;2355.20;;;;;;5030647;28;20483;-76
2021/09/03 00:37:08;;;;;;;14.02;11.48;;;410.30;2355.20;;;;;;5045126;28;20037;-76
2021/09/03 00:39:34;;;;;;;17.02;10.77;;;410.20;2355.20;;;;;;5030927;28;20104;-76
2021/09/03 00:42:00;;;;;;;16.52;12.07;;;410.20;2355.20;;;;;;5043355;28;20025;-76
2021/09/03 00:44:27;;;;;;;18.20;11.63;;;410.20;2355.20;;;;;;5044020;28;20025;-76
2021/09/03 00:46:52;;;;;;;18.58;11.90;;;410.20;2355.20;;;;;;5024822;28;20051;-77
2021/09/03 00:49:18;;;;;;;18.00;11.95;;;410.20;2355.20;;;;;;5029609;28;20124;-76
2021/09/03 00:51:44;;;;;;;13.20;10.70;;;410.20;2355.20;;;;;;5034903;28;20032;-76
2021/09/03 00:54:10;;;;;;;14.95;10.73;;;410.20;2355.20;;;;;;5036430;28;20029;-76
2021/09/03 00:56:36;;;;;;;19.27;12.70;;;410.20;2355.20;;;;;;5038616;28;20022;-76
2021/09/03 00:59:10;;;;;;;17.85;12.30;;;410.20;2355.20;;;;;;5034306;28;20036;-76
2021/09/03 01:01:36;;;;;;;17.25;12.55;;;410.10;2355.20;;;;;;5034054;28;20032;-76
2021/09/03 01:04:02;;;;;;;24.48;13.38;;;410.20;2355.20;;;;;;5035291;28;20018;-76
2021/09/03 01:06:28;;;;;;;36.80;17.10;;;410.20;2355.20;;;;;;5041654;28;20041;-77
2021/09/03 01:08:54;;;;;;;32.35;14.50;;;410.20;2355.20;;;;;;5042256;28;20036;-76
2021/09/03 01:11:26;;;;;;;30.45;14.35;;;410.20;2355.20;;;;;;5042424;28;20025;-76
2021/09/03 01:13:51;;;;;;;20.85;13.15;;;410.10;2355.20;;;;;;5034396;28;20030;-76
2021/09/03 01:16:17;;;;;;;27.92;13.77;;;410.10;2355.20;;;;;;5033145;28;20045;-76
2021/09/03 01:18:43;;;;;;;30.42;13.88;;;410.10;2355.20;;;;;;5034278;28;20036;-76
2021/09/03 01:21:09;;;;;;;25.25;14.75;;;410.00;2355.20;;;;;;5033124;28;20104;-76
2021/09/03 01:23:35;;;;;;;21.58;12.73;;;409.90;2355.20;;;;;;5041148;28;20025;-76
2021/09/03 01:26:04;;;;;;;26.52;13.93;;;409.90;2355.20;;;;;;5042133;28;20025;-76
2021/09/03 01:28:34;;;;;;;26.15;14.05;;;409.90;2355.20;;;;;;5024723;28;20029;-77
2021/09/03 01:31:00;;;;;;;29.80;14.02;;;409.90;2355.20;;;;;;5032222;28;20040;-76
2021/09/03 01:33:26;;;;;;;29.38;14.70;;;409.90;2355.20;;;;;;5034340;28;20030;-76
2021/09/03 01:35:51;;;;;;;22.98;13.60;;;410.00;2355.20;;;;;;5046162;28;20514;-76
2021/09/03 01:38:17;;;;;;;18.95;13.73;;;410.00;2355.20;;;;;;5041540;28;20055;-76
2021/09/03 01:40:43;;;;;;;22.65;12.85;;;410.00;2355.20;;;;;;5029290;28;20531;-76
2021/09/03 01:43:09;;;;;;;20.45;13.23;;;410.00;2355.20;;;;;;5025946;28;20024;-76
2021/09/03 01:45:34;;;;;;;18.20;12.35;;;410.00;2355.20;;;;;;5033654;28;20423;-76
2021/09/03 01:48:00;;;;;;;19.27;14.05;;;409.90;2355.20;;;;;;5028077;28;20025;-75
2021/09/03 01:50:26;;;;;;;17.95;11.25;;;409.90;2355.20;;;;;;5030718;28;20029;-75
2021/09/03 01:52:52;;;;;;;19.40;12.20;;;410.00;2355.20;;;;;;5041035;28;20028;-76
2021/09/03 01:55:17;;;;;;;28.95;14.05;;;409.90;2355.20;;;;;;5025693;28;20052;-76
2021/09/03 01:57:47;;;;;;;18.45;12.85;;;410.10;2355.20;;;;;;5034901;28;20112;-76
2021/09/03 02:00:13;;;;;;;20.90;12.70;;;410.10;2355.20;;;;;;5035400;28;20017;-75
2021/09/03 02:02:39;;;;;;;24.75;13.57;;;410.00;2355.20;;;;;;5044169;28;20338;-76
2021/09/03 02:05:09;;;;;;;19.45;13.07;;;410.00;2355.20;;;;;;5035096;28;20040;-77
2021/09/03 02:07:38;;;;;;;21.10;13.15;;;410.10;2355.20;;;;;;5036076;28;20033;-76
2021/09/03 02:10:05;;;;;;;26.77;13.93;;;410.10;2355.20;;;;;;5032146;28;20120;-76
2021/09/03 02:12:31;;;;;;;21.02;14.30;;;410.10;2355.20;;;;;;5031832;28;20392;-76
2021/09/03 02:14:56;;;;;;;19.80;12.50;;;410.10;2355.20;;;;;;5051008;28;20033;-76
2021/09/03 02:17:22;;;;;;;21.33;13.82;;;410.10;2355.20;;;;;;5035192;28;20116;-77
2021/09/03 02:19:48;;;;;;;18.30;13.13;;;410.10;2355.20;;;;;;5033184;28;20025;-76
2021/09/03 02:22:13;;;;;;;21.80;14.18;;;410.10;2355.20;;;;;;5043749;28;20017;-76
2021/09/03 02:24:39;;;;;;;25.33;13.88;;;410.10;2355.20;;;;;;5034775;28;20061;-76
2021/09/03 02:27:05;;;;;;;25.13;14.70;;;410.20;2355.20;;;;;;5032409;28;20476;-78
2021/09/03 02:29:37;;;;;;;20.75;13.43;;;410.20;2355.20;;;;;;5027991;28;20022;-77
2021/09/03 02:32:06;;;;;;;22.58;13.13;;;410.20;2355.20;;;;;;5024712;28;20036;-77
2021/09/03 02:34:37;;;;;;;20.65;13.38;;;410.20;2355.20;;;;;;5042272;28;20701;-77
2021/09/03 02:37:06;;;;;;;24.85;13.02;;;410.20;2355.20;;;;;;5033896;28;20037;-76
2021/09/03 02:39:32;;;;;;;20.48;12.95;;;410.20;2355.20;;;;;;5041471;28;20026;-76
2021/09/03 02:41:58;;;;;;;17.17;12.68;;;410.20;2355.20;;;;;;5043816;28;20025;-76
2021/09/03 02:44:23;;;;;;;18.10;12.68;;;410.20;2355.20;;;;;;5041499;28;20025;-77
2021/09/03 02:46:49;;;;;;;17.67;12.52;;;410.20;2355.20;;;;;;5032212;28;20417;-77
2021/09/03 02:49:15;;;;;;;19.70;12.95;;;410.20;2355.20;;;;;;5031282;28;20391;-76
2021/09/03 02:51:40;;;;;;;20.75;13.77;;;410.30;2355.20;;;;;;5042163;28;20060;-77
2021/09/03 02:54:06;;;;;;;19.67;13.10;;;410.30;2355.20;;;;;;5032084;28;20060;-77
2021/09/03 02:56:35;;;;;;;18.92;13.90;;;410.30;2355.20;;;;;;5030834;28;20440;-77
2021/09/03 02:59:01;;;;;;;22.70;13.40;;;410.40;2355.20;;;;;;5019162;28;20043;-77
2021/09/03 03:01:32;;;;;;;18.60;13.43;;;410.40;2355.20;;;;;;5035299;28;20431;-76
2021/09/03 03:03:58;;;;;;;18.80;12.55;;;410.50;2355.20;;;;;;5032600;28;20032;-77
2021/09/03 03:06:24;;;;;;;16.73;12.93;;;410.50;2355.20;;;;;;5031302;28;20392;-76
2021/09/03 03:08:49;;;;;;;17.40;12.50;;;410.50;2355.20;;;;;;5039572;28;20775;-76
2021/09/03 03:11:15;;;;;;;15.02;11.90;;;410.50;2355.20;;;;;;5028478;28;20774;-77
2021/09/03 03:13:48;;;;;;;19.95;12.98;;;435.20;2355.20;;;;;;5022807;28;20033;-77
2021/09/03 03:16:17;;;;;;;18.80;12.20;;;435.20;2355.20;;;;;;5032168;28;20043;-76
2021/09/03 03:18:43;;;;;;;17.02;11.65;;;435.20;2355.20;;;;;;5024951;28;20022;-76
2021/09/03 03:21:09;;;;;;;15.48;11.98;;;410.50;2355.20;;;;;;5029562;28;20547;-76
2021/09/03 03:23:34;;;;;;;18.27;12.48;;;410.30;2355.20;;;;;;5034393;28;20060;-76
2021/09/03 03:26:03;;;;;;;16.42;12.20;;;410.30;2355.20;;;;;;5032928;28;20067;-76
2021/09/03 03:28:29;;;;;;;15.32;11.00;;;410.30;2355.20;;;;;;5030418;28;20039;-76
2021/09/03 03:30:58;;;;;;;15.68;12.02;;;410.10;2355.20;;;;;;5031158;28;20037;-76
2021/09/03 03:33:36;;;;;;;16.92;11.48;;;410.10;2355.20;;;;;;5030414;28;20119;-76
2021/09/03 03:36:01;;;;;;;17.40;11.75;;;410.10;2355.20;;;;;;5034394;28;20374;-76
2021/09/03 03:38:27;;;;;;;16.67;13.25;;;410.10;2355.20;;;;;;5035910;28;20044;-77
2021/09/03 03:40:53;;;;;;;16.73;11.63;;;410.10;2355.20;;;;;;5040238;28;20025;-76
2021/09/03 03:43:18;;;;;;;17.23;11.73;;;409.90;2355.20;;;;;;5036647;28;20036;-76
2021/09/03 03:45:44;;;;;;;17.80;12.10;;;409.80;2355.20;;;;;;5036519;28;20143;-76
2021/09/03 03:48:10;;;;;;;22.40;12.77;;;409.80;2355.20;;;;;;5034886;28;20413;-76
2021/09/03 03:50:36;;;;;;;15.48;11.65;;;409.80;2355.20;;;;;;5038747;28;20052;-76
2021/09/03 03:53:01;;;;;;;16.98;11.68;;;409.60;2355.20;;;;;;5034268;28;20513;-76
2021/09/03 03:55:27;;;;;;;16.75;11.80;;;409.60;2355.20;;;;;;5036294;28;20049;-77
2021/09/03 03:57:53;;;;;;;15.57;12.18;;;409.60;2355.20;;;;;;5036568;28;20540;-76
2021/09/03 04:00:18;;;;;;;17.58;12.63;;;384.90;2329.60;;;;;;5037247;28;20476;-77
2021/09/03 04:02:47;;;;;;;16.58;11.80;;;409.60;2355.20;;;;;;5031044;28;20072;-77
2021/09/03 04:05:13;;;;;;;17.33;11.25;;;409.60;2355.20;;;;;;5029989;28;20021;-76
2021/09/03 04:07:39;;;;;;;15.98;11.07;;;409.60;2355.20;;;;;;5031704;28;20384;-76
2021/09/03 04:10:05;;;;;;;15.93;12.43;;;384.90;2329.60;;;;;;5031267;28;20785;-76
2021/09/03 04:12:31;;;;;;;15.10;11.25;;;384.90;2329.60;;;;;;5040471;28;20030;-76
2021/09/03 04:14:56;;;;;;;16.58;11.18;;;384.90;2329.60;;;;;;5031445;28;20040;-76
2021/09/03 04:17:22;;;;;;;14.75;11.55;;;409.60;2355.20;;;;;;5036679;28;20060;-76
2021/09/03 04:19:48;;;;;;;19.05;12.27;;;409.60;2355.20;;;;;;5030871;28;20392;-76
2021/09/03 04:22:14;;;;;;;19.45;10.65;;;409.60;2355.20;;;;;;5028563;28;20036;-76
2021/09/03 04:24:39;;;;;;;16.58;11.75;;;409.70;2355.20;;;;;;5035573;28;20033;-76
2021/09/03 04:27:11;;;;;;;13.15;10.68;;;409.70;2355.20;;;;;;5032663;28;20502;-75
2021/09/03 04:29:37;;;;;;;17.52;11.43;;;409.80;2355.20;;;;;;5030523;28;20057;-76
2021/09/03 04:32:03;;;;;;;14.32;11.50;;;409.80;2355.20;;;;;;5030917;28;20045;-76
2021/09/03 04:34:29;;;;;;;16.10;11.88;;;409.80;2355.20;;;;;;5043402;28;20128;-76
2021/09/03 04:36:54;;;;;;;18.63;11.70;;;409.90;2355.20;;;;;;5045736;28;20481;-77
2021/09/03 04:39:20;;;;;;;18.27;11.75;;;409.90;2355.20;;;;;;5035441;28;20025;-77
2021/09/03 04:41:49;;;;;;;14.38;10.73;;;410.00;2355.20;;;;;;5060119;28;20473;-77
2021/09/03 04:44:14;;;;;;;18.33;11.50;;;410.10;2355.20;;;;;;5051092;28;20056;-77
2021/09/03 04:46:40;;;;;;;15.30;10.82;;;410.10;2355.20;;;;;;5045205;28;20484;-77
2021/09/03 04:49:06;;;;;;;15.05;11.63;;;410.10;2355.20;;;;;;5036091;28;20045;-76
2021/09/03 04:51:32;;;;;;;15.55;11.82;;;410.10;2355.20;;;;;;5032149;28;20036;-76
2021/09/03 04:53:57;;;;;;;14.50;11.50;;;410.20;2355.20;;;;;;5048616;28;20033;-76
2021/09/03 04:56:23;;;;;;;16.88;12.52;;;410.20;2355.20;;;;;;5035050;28;20037;-76
2021/09/03 04:58:49;;;;;;;16.60;12.18;;;410.30;2355.20;;;;;;5038523;28;20027;-76
2021/09/03 05:01:21;;;;;;;23.13;12.10;;;410.30;2355.20;;;;;;5043833;28;20033;-77
2021/09/03 05:03:49;;;;;;;17.55;12.02;;;410.40;2355.20;;;;;;5033331;28;20103;-76
2021/09/03 05:06:19;;;;;;;15.35;12.05;;;410.40;2355.20;;;;;;5034672;28;20026;-76
2021/09/03 05:08:48;;;;;;;15.70;12.57;;;410.50;2355.20;;;;;;5036076;28;20032;-76
2021/09/03 05:11:14;;;;;;;15.32;11.90;;;410.50;2355.20;;;;;;5034695;28;20108;-76
2021/09/03 05:13:40;;;;;;;15.05;12.10;;;410.50;2355.20;;;;;;5035675;28;20097;-76
2021/09/03 05:16:05;;;;;;;19.58;13.00;;;435.20;2355.20;;;;;;5036728;28;20041;-76
2021/09/03 05:18:31;;;;;;;16.55;11.30;;;435.30;2355.20;;;;;;5034650;28;20021;-76
2021/09/03 05:20:57;;;;;;;15.57;11.90;;;435.40;2355.20;;;;;;5033938;28;20033;-76
2021/09/03 05:23:23;;;;;;;16.73;11.93;;;435.40;2355.20;;;;;;5046433;28;20033;-76
2021/09/03 05:25:55;;;;;;;24.15;12.48;;;435.50;2355.20;;;;;;5034750;28;20112;-75
2021/09/03 05:28:20;;;;;;;16.73;12.10;;;435.60;2355.20;;;;;;5041315;28;20056;-75
2021/09/03 05:30:46;;;;;;;14.90;11.45;;;435.60;2355.20;;;;;;5034238;28;20033;-76
2021/09/03 05:33:12;;;;;;;20.08;12.77;;;435.70;2355.20;;;;;;5047343;28;20036;-76
2021/09/03 05:35:38;;;;;;;17.38;11.80;;;435.80;2355.20;;;;;;5034357;28;20042;-76
2021/09/03 05:38:04;;;;;;;16.55;12.10;;;435.90;2355.20;;;;;;5031214;28;20021;-76
2021/09/03 05:40:35;;;;;;;14.50;11.43;;;436.00;2355.20;;;;;;5028318;28;20365;-76
2021/09/03 05:43:01;;;;;;;16.52;10.85;;;460.80;2380.80;;;;;;5025851;28;20021;-76
2021/09/03 05:45:27;;;;;;;17.80;11.77;;;461.00;2380.80;;;;;;5027916;28;20052;-76
2021/09/03 05:47:52;;;;;;;15.60;11.00;;;460.90;2380.80;;;;;;5025689;28;20495;-76
2021/09/03 05:50:19;;;;;;;16.52;11.15;;;461.10;2380.80;;;;;;5026451;28;20505;-76
2021/09/03 05:52:54;;;;;;;20.38;12.18;;;461.10;2380.80;;;;;;5029351;28;20160;-76
2021/09/03 05:55:20;;;;;;;18.15;10.43;;;461.20;2380.80;;;;;;5026593;28;20079;-76
2021/09/03 05:57:47;;;;;;;14.32;10.93;;;461.30;2380.80;;;;;;5028047;28;20025;-76
2021/09/03 06:00:13;;;;;;;15.25;10.40;;;461.40;2380.80;;;;;;5030348;28;20014;-76
2021/09/03 06:02:42;;;;;;;15.18;11.48;;;461.40;2380.80;;;;;;5030854;28;20071;-76
2021/09/03 06:05:11;;;;;;;15.48;10.05;;;461.50;2380.80;;;;;;5022616;28;20404;-76
2021/09/03 06:07:36;;;;;;;12.85;10.05;;;461.60;2380.80;;;;;;5032719;28;20079;-76
2021/09/03 06:10:05;;;;;;;13.85;9.95;;;486.40;2380.80;;;;;;5027110;28;20101;-77
2021/09/03 06:12:31;;;;;;;12.68;10.13;;;486.60;2380.80;;;;;;5025209;28;20043;-76
2021/09/03 06:14:56;;;;;;;22.58;13.18;;;486.70;2380.80;;;;;;5025716;28;20026;-76
2021/09/03 06:17:22;;;;;;;13.38;9.35;;;486.90;2380.80;;;;;;5023775;28;20107;-76
2021/09/03 06:19:48;;;;;;;13.45;9.43;;;487.30;2380.80;;;;;;5023623;28;20033;-76
2021/09/03 06:22:14;;;;;;;11.45;8.60;;;512.00;2380.80;;;;;;5026359;28;20041;-76
2021/09/03 06:24:40;;;;;;;12.77;9.85;;;512.20;2380.80;;;;;;5026575;28;20045;-76
2021/09/03 06:27:12;;;;;;;15.25;9.60;;;512.20;2380.80;;;;;;5024334;28;20033;-76
2021/09/03 06:29:45;;;;;;;13.40;9.35;;;512.30;2380.80;;;;;;5022185;28;20022;-77
2021/09/03 06:32:11;;;;;;;11.65;9.98;;;512.50;2380.80;;;;;;5035737;28;20021;-76
2021/09/03 06:34:40;;;;;;;16.42;9.23;;;512.60;2380.80;;;;;;5029395;28;20045;-77
2021/09/03 06:37:13;;;;;;;12.38;8.90;;;512.90;2380.80;;;;;;5022892;28;20038;-77
2021/09/03 06:39:42;;;;;;;16.58;9.05;;;537.60;2406.40;;;;;;5062778;28;20029;-76
2021/09/03 06:42:09;;;;;;;10.38;8.32;;;537.80;2406.40;;;;;;5032377;28;20026;-76
2021/09/03 06:44:35;;;;;;;11.57;8.85;;;537.80;2406.40;;;;;;5026897;28;20152;-77
2021/09/03 06:47:02;;;;;;;12.88;8.75;;;537.90;2406.40;;;;;;5025510;28;20021;-78
2021/09/03 06:49:29;;;;;;;12.23;7.45;;;537.80;2406.40;;;;;;5020506;28;20026;-77
2021/09/03 06:51:55;;;;;;;8.75;7.22;;;538.00;2406.40;;;;;;5024710;28;20031;-77
2021/09/03 06:54:20;;;;;;;10.35;7.95;;;538.00;2406.40;;;;;;5031239;28;20029;-77
2021/09/03 06:56:46;;;;;;;11.93;7.90;;;538.20;2406.40;;;;;;5027297;28;20025;-76
2021/09/03 06:59:12;;;;;;;7.85;6.80;;;538.20;2406.40;;;;;;5025611;28;20072;-76
2021/09/03 07:01:41;;;;;;;10.18;7.65;;;563.20;2432.00;;;;;;5022057;28;20030;-76
2021/09/03 07:04:07;;;;;;;10.93;9.23;;;563.20;2432.00;;;;;;5030125;28;20092;-75
2021/09/03 07:06:32;;;;;;;10.90;7.55;;;563.50;2432.00;;;;;;5024994;28;20025;-76
2021/09/03 07:09:04;;;;;;;12.00;7.88;;;563.50;2432.00;;;;;;5023444;28;20029;-76
2021/09/03 07:11:31;;;;;;;11.40;7.00;;;563.70;2432.00;;;;;;5023850;28;20384;-75
2021/09/03 07:13:58;;;;;;;37.13;10.75;;;563.80;2432.00;;;;;;5029285;28;20026;-76
2021/09/03 07:16:24;;;;;;;12.93;7.50;;;564.00;2432.00;;;;;;5024421;28;20096;-76
2021/09/03 07:18:50;;;;;;;10.85;7.43;;;564.00;2432.00;;;;;;5023891;28;20442;-76
2021/09/03 07:21:15;;;;;;;14.35;8.05;;;564.10;2432.00;;;;;;5027306;28;20034;-77
2021/09/03 07:23:41;;;;;;;13.35;7.47;;;588.90;2432.00;;;;;;5021321;28;20022;-76
2021/09/03 07:26:10;;;;;;;9.73;7.20;;;588.90;2432.00;;;;;;5023312;28;20022;-76
2021/09/03 07:28:36;;;;;;;9.93;7.10;;;588.90;2432.00;;;;;;5028533;28;20021;-77
2021/09/03 07:31:02;;;;;;;10.88;6.93;;;588.90;2432.00;;;;;;5028555;28;20045;-76
2021/09/03 07:33:28;;;;;;;10.65;7.90;;;589.00;2432.00;;;;;;5025148;28;20049;-76
2021/09/03 07:35:53;;;;;;;12.55;8.75;;;589.10;2432.00;;;;;;5022408;28;20125;-75
2021/09/03 07:38:22;;;;;;;11.82;9.07;;;589.10;2432.00;;;;;;5023167;28;20095;-76
2021/09/03 07:40:48;;;;;;;13.98;8.38;;;589.30;2432.00;;;;;;5026439;28;20084;-76
2021/09/03 07:43:17;;;;;;;11.90;8.35;;;589.30;2432.00;;;;;;5020002;28;20025;-76
2021/09/03 07:45:43;;;;;;;17.73;7.53;;;589.30;2432.00;;;;;;5023126;28;20048;-76
2021/09/03 07:48:09;;;;;;;9.85;7.15;;;589.40;2432.00;;;;;;5020519;28;20512;-76
2021/09/03 07:50:35;;;;;;;8.30;5.75;;;589.50;2432.00;;;;;;5023470;28;20553;-76
2021/09/03 07:53:03;;;;;;;13.45;6.93;;;589.50;2432.00;;;;;;5023715;28;20022;-76
2021/09/03 07:55:29;;;;;;;8.30;6.28;;;589.70;2432.00;;;;;;5020783;28;20045;-76
2021/09/03 07:57:55;;;;;;;10.00;6.03;;;614.40;2432.00;;;;;;5025474;28;20034;-76
2021/09/03 08:00:24;;;;;;;7.30;4.68;;;614.70;2432.00;;;;;;5025800;28;20029;-76
2021/09/03 08:02:49;;;;;;;5.88;4.50;;;614.90;2432.00;;;;;;5028333;28;20034;-76
2021/09/03 08:05:15;;;;;;;7.55;4.70;;;615.00;2432.00;;;;;;5030279;28;20029;-76
2021/09/03 08:07:44;;;;;;;9.35;5.63;;;615.20;2432.00;;;;;;5020664;28;20124;-76
2021/09/03 08:10:11;;;;;;;8.45;5.13;;;615.10;2432.00;;;;;;5026715;28;20033;-76
2021/09/03 08:12:38;;;;;;;11.18;5.28;;;615.10;2432.00;;;;;;5022598;28;20030;-75
2021/09/03 08:15:06;;;;;;;12.02;5.85;;;615.10;2432.00;;;;;;5029399;28;20038;-76
2021/09/03 08:17:33;;;;;;;8.43;5.18;;;615.20;2432.00;;;;;;5026993;28;20029;-75
2021/09/03 08:20:04;;;;;;;11.20;6.78;;;615.10;2432.00;;;;;;5026732;28;20145;-75
2021/09/03 08:22:33;;;;;;;11.07;6.00;;;615.10;2432.00;;;;;;5030243;28;20041;-77
2021/09/03 08:24:58;;;;;;;12.38;5.82;;;615.10;2432.00;;;;;;5031425;28;20017;-77
2021/09/03 08:27:24;;;;;;;10.88;5.45;;;615.30;2432.00;;;;;;5023506;28;20160;-77
2021/09/03 08:29:53;;;;;;;12.38;6.85;;;615.30;2432.00;;;;;;5019646;28;20033;-76
2021/09/03 08:32:19;;;;;;;7.25;5.70;;;640.00;2432.00;;;;;;5033392;28;20049;-77
2021/09/03 08:34:45;;;;;;;9.32;5.40;;;640.00;2432.00;;;;;;5026287;28;20480;-76
2021/09/03 08:37:11;;;;;;;8.50;4.53;;;640.20;2432.00;;;;;;5022810;28;20184;-77
2021/09/03 08:39:52;;;;;;;7.35;5.25;;;640.20;2432.00;;;;;;5024874;28;20495;-76
2021/09/03 08:42:18;;;;;;;17.30;8.57;;;640.40;2432.00;;;;;;5020489;28;20029;-77
2021/09/03 08:44:44;;;;;;;11.43;6.72;;;640.80;2432.00;;;;;;5030673;28;20041;-77
2021/09/03 08:47:12;;;;;;;7.40;4.53;;;665.90;2432.00;;;;;;5020714;28;20045;-76
2021/09/03 08:49:37;;;;;;;9.25;5.53;;;691.50;2355.20;;;;;;5024111;28;20029;-77
2021/09/03 08:52:04;;;;;;;6.60;4.80;;;691.70;2355.20;;;;;;5026053;28;20032;-77
2021/09/03 08:54:29;;;;;;;7.10;4.72;;;691.70;2278.40;;;;;;5025989;28;20018;-76
2021/09/03 08:56:55;;;;;;;6.65;4.80;;;691.60;2278.40;;;;;;5026649;28;20033;-77
2021/09/03 08:59:21;;;;;;;10.93;4.80;;;692.10;2227.20;;;;;;5028607;28;20029;-76
2021/09/03 09:02:14;;;;;;;9.25;5.75;;;717.10;2201.60;;;;;;5025215;28;20039;-76
2021/09/03 09:04:45;;;;;;;8.45;5.20;;;717.70;2124.80;;;;;;5024349;28;20020;-77
2021/09/03 09:07:12;;;;;;;10.43;4.68;;;743.00;2048.00;;;;;;5027808;28;20025;-76
2021/09/03 09:09:47;;;;;;;8.13;5.18;;;743.10;1996.80;;;;;;5024172;28;20037;-76
2021/09/03 09:12:18;;;;;;;8.97;4.53;;;768.00;1945.60;;;;;;5026406;28;20029;-76
2021/09/03 09:15:03;;;;;;;8.27;5.32;;;768.10;1843.20;;;;;;5026909;28;20278;-76
2021/09/03 09:17:37;;;;;;;14.90;7.57;;;768.90;1843.20;;;;;;5028287;28;20029;-76
2021/09/03 09:20:08;;;;;;;5.80;3.75;;;793.60;1766.40;;;;;;5026704;28;20100;-86
2021/09/03 09:22:54;;;;;;;11.82;5.20;;;793.90;1561.60;;;;;;5026553;28;20033;-85
2021/09/03 09:25:24;;;;;;;9.75;3.10;;;794.30;1561.60;;;;;;5034432;28;20029;-83
2021/09/03 09:27:50;;;;;;;9.32;4.82;;;794.30;1484.80;;;;;;5032335;28;20184;-84
2021/09/03 09:30:28;;;;;;;7.78;3.47;;;794.20;1484.80;;;;;;5032732;28;20492;-84
2021/09/03 09:33:15;;;;;;;8.98;3.80;;;793.90;1484.80;;;;;;5041480;28;20033;-83
2021/09/03 09:35:48;;;;;;;4.05;3.03;;;794.20;1433.60;;;;;;5047436;28;20052;-83
2021/09/03 09:38:16;;;;;;;4.22;2.70;;;794.40;1433.60;;;;;;5036678;28;20191;-83
2021/09/03 09:40:46;;;;;;;5.43;2.67;;;794.50;1408.00;;;;;;5033723;28;20428;-83
2021/09/03 09:43:27;;;;;;;5.45;2.78;;;819.70;1356.80;;;;;;5037482;28;20366;-83
2021/09/03 09:46:18;;;;;;;9.38;3.80;;;819.90;1382.40;;;;;;5029542;28;20080;-82
2021/09/03 09:48:50;;;;;;;5.53;3.22;;;845.00;1356.80;;;;;;5022714;28;20045;-82
2021/09/03 09:51:27;;;;;;;5.63;3.00;;;845.20;1305.60;;;;;;5029419;28;20037;-83
2021/09/03 09:54:25;;;;;;;5.22;2.90;;;845.50;1305.60;;;;;;5026473;28;20120;-82
2021/09/03 09:57:06;;;;;;;7.95;2.85;;;845.30;1254.40;;;;;;5054285;28;20041;-83
2021/09/03 09:59:34;;;;;;;6.30;4.72;;;845.30;1280.00;;;;;;5030813;28;20076;-81
2021/09/03 10:02:02;;;;;;;7.18;4.75;;;845.50;1254.40;;;;;;5021946;28;20026;-83
2021/09/03 10:04:36;;;;;;;4.82;3.22;;;845.50;1228.80;;;;;;5024215;28;20018;-81
2021/09/03 10:07:04;;;;;;;3.30;2.65;;;845.30;1203.20;;;;;;5020578;28;20032;-80
2021/09/03 10:09:34;;;;;;;3.47;2.65;;;845.20;1203.20;;;;;;5026420;28;20029;-83
2021/09/03 10:12:01;;;;;;;3.65;2.17;;;845.30;1177.60;;;;;;5024199;28;20034;-84
2021/09/03 10:14:29;;;;;;;4.57;2.63;;;845.50;1203.20;;;;;;5026039;28;20045;-84
2021/09/03 10:16:56;;;;;;;5.22;2.95;;;870.60;1152.00;;;;;;5030334;28;20119;-84
2021/09/03 10:19:28;;;;;;;5.68;3.35;;;870.60;1177.60;;;;;;5027055;28;20120;-84
2021/09/03 10:22:09;;;;;;;6.38;3.25;;;845.00;1203.20;;;;;;5017959;28;20143;-84
2021/09/03 10:24:36;;;;;;;4.68;2.45;;;845.20;1203.20;;;;;;5027726;28;20025;-83
2021/09/03 10:27:05;;;;;;;4.22;2.70;;;845.30;1177.60;;;;;;5026247;28;20052;-83
2021/09/03 10:29:38;;;;;;;3.78;2.88;;;845.50;1152.00;;;;;;5027954;28;20037;-83
2021/09/03 10:32:16;;;;;;;4.63;3.25;;;845.50;1152.00;;;;;;5028736;28;20022;-83
2021/09/03 10:34:53;;;;;;;6.55;2.60;;;845.50;1152.00;;;;;;5031117;28;20103;-82
2021/09/03 10:37:18;;;;;;;5.47;2.55;;;870.90;1126.40;;;;;;5029612;28;20031;-83
2021/09/03 10:40:09;;;;;;;9.20;3.13;;;870.90;1126.40;;;;;;5020377;28;20098;-82
2021/09/03 10:45:34;;;;;;;5.03;3.28;;;870.70;1126.40;;;;;;5020276;28;20116;-84
2021/09/03 10:48:10;;;;;;;4.68;3.00;;;870.90;1126.40;;;;;;4988749;28;20049;-83
2021/09/03 10:50:56;;;;;;;3.63;2.50;;;870.90;1100.80;;;;;;4974970;28;20401;-84
2021/09/03 10:53:37;;;;;;;4.45;2.20;;;845.70;1126.40;;;;;;4974702;28;20030;-83
2021/09/03 10:56:18;;;;;;;4.30;3.10;;;845.40;1126.40;;;;;;4974442;28;20385;-83
2021/09/03 10:58:54;;;;;;;3.80;2.90;;;871.30;1100.80;;;;;;4990567;28;20520;-84
2021/09/03 11:01:27;;;;;;;5.63;2.90;;;896.30;1075.20;;;;;;4991673;28;21334;-84
2021/09/03 11:03:55;;;;;;;5.15;2.85;;;922.40;1049.60;;;;;;4973846;28;20150;-85
2021/09/03 11:09:17;;;;;;;7.45;3.15;;;947.70;1024.00;;;;;;4988139;28;20125;-84
2021/09/03 11:11:52;;;;;;;5.38;4.05;;;922.30;1024.00;;;;;;4972899;28;20101;-83
2021/09/03 11:14:25;;;;;;;4.40;2.67;;;921.80;1049.60;;;;;;4973052;28;20042;-85
2021/09/03 11:17:07;;;;;;;5.28;3.35;;;896.70;1024.00;;;;;;4981611;28;20093;-83
2021/09/03 11:19:34;;;;;;;3.83;2.30;;;896.60;1024.00;;;;;;4971655;28;20027;-84
2021/09/03 11:22:00;;;;;;;3.67;2.83;;;896.90;998.40;;;;;;4990990;28;20025;-83
2021/09/03 11:24:32;;;;;;;4.47;2.80;;;896.10;998.40;;;;;;5002536;28;20093;-83
2021/09/03 11:27:01;;;;;;;4.70;2.60;;;870.90;1049.60;;;;;;5036629;28;20064;-84
2021/09/03 11:29:35;;;;;;;5.82;4.47;;;896.20;1024.00;;;;;;5028282;28;20029;-84
2021/09/03 11:32:05;;;;;;;4.70;2.97;;;896.90;998.40;;;;;;5028429;28;20097;-83
2021/09/03 11:34:52;;;;;;;5.55;3.40;;;921.90;1024.00;;;;;;5031553;28;20377;-83
2021/09/03 11:37:24;;;;;;;6.80;3.38;;;921.70;998.40;;;;;;5024411;28;20554;-83
2021/09/03 11:40:01;;;;;;;16.13;4.07;;;921.70;998.40;;;;;;5058663;28;20033;-84
2021/09/03 11:42:29;;;;;;;4.35;2.85;;;896.30;998.40;;;;;;5024597;28;20033;-83
2021/09/03 11:45:05;;;;;;;3.83;2.70;;;896.00;998.40;;;;;;5030973;28;20055;-84
2021/09/03 11:47:35;;;;;;;3.80;2.67;;;870.60;1049.60;;;;;;5029758;28;20077;-83
2021/09/03 11:50:06;;;;;;;4.03;2.63;;;845.50;1049.60;;;;;;5028898;28;20017;-83
2021/09/03 11:52:32;;;;;;;3.88;2.60;;;870.60;1024.00;;;;;;5029331;28;20021;-83
2021/09/03 11:54:59;;;;;;;5.53;3.85;;;896.10;972.80;;;;;;5028391;28;20037;-83
2021/09/03 11:57:25;;;;;;;4.60;2.80;;;896.10;972.80;;;;;;5030527;28;20041;-84
2021/09/03 12:00:02;;;;;;;4.97;4.07;;;896.80;947.20;;;;;;5028622;28;20041;-83
2021/09/03 12:02:29;;;;;;;4.88;2.20;;;896.50;972.80;;;;;;5030285;28;20024;-83
2021/09/03 12:04:57;;;;;;;4.00;3.08;;;896.50;972.80;;;;;;5028923;28;20029;-83
2021/09/03 12:07:24;;;;;;;4.93;3.38;;;921.80;972.80;;;;;;5036613;28;20029;-83
2021/09/03 12:09:55;;;;;;;5.45;2.95;;;896.90;947.20;;;;;;5029004;28;20502;-84
2021/09/03 12:12:29;;;;;;;6.72;3.20;;;896.80;972.80;;;;;;5028364;28;20021;-84
2021/09/03 12:15:03;;;;;;;5.80;2.53;;;922.50;947.20;;;;;;5029004;28;20026;-84
2021/09/03 12:17:42;;;;;;;5.70;2.63;;;947.20;921.60;;;;;;5056081;28;20112;-84